Hodges, SC

10:31 AM EST on December 07, 2016 (GMT -0500)
Forest Hills | | Change Station

Elev 649 ft 34.24 °N, 82.18 °W | Updated 12 seconds ago

Overcast
Overcast
48.9 °F
Feels Like 49 °F
N
0.0
Wind Variable Wind from SSE
Gusts 0.0 mph

Today
High -- | Low -- °F
--% Chance of Precip.
Yesterday
High -- | Low -- °F
Precip. -- in
Pressure 30.10 in
Visibility 10.0 miles
Clouds Overcast 500 ft
Windchill 49 °F
Dew Point 48 °F
Humidity 98%
Rainfall 0.00 in
Snow Depth Not available.
7:22 AM 5:18 PM
First Quarter, 53% visible
METAR KGRD 071456Z AUTO 03003KT 10SM OVC005 09/07 A3010 RMK AO2 SLP191 T00890072 52026
Pressure 30.10 in
Visibility 10.0 miles
Clouds Overcast 500 ft
Windchill 49 °F
Dew Point 48 °F
Humidity 98%
Rainfall 0.00 in
Snow Depth Not available.
7:22 AM 5:18 PM
First Quarter, 53% visible
METAR KGRD 071456Z AUTO 03003KT 10SM OVC005 09/07 A3010 RMK AO2 SLP191 T00890072 52026

10-Day Weather Forecast

Almanac

Astronomy

Dec. 07, 2016 Rise Set
Actual Time
Civil Twilight
Nautical Twilight
Astronomical Twilight
Moon
Length of Visible Light
Length of Day
Tomorrow will be .
, % of the Moon is Illuminated

Today's Extremes

State Highs State Lows

Community

WunderPhotos

Upload Photos

1,956,118 photos uploaded!

WunderBlog® & News

Nearby

Air Quality

  Air Quality AQ Index Pollutant
Not available.

Snow Depth

Station Depth Elevation

Earthquake Activity

City Distance Mag. Time & Date
Minimum magnitude displayed is 2.5.

Coastal Water Temperatures

Place Temperature

Stations

Nearby Weather Stations

Station Location Temp. Windchill Dew Point Humidity Wind Precip. Elev Updated Type
                   

Watches & Warnings

There are currently no watches in effect.